Waarnemingen

Advertentie
Mijn weer
Isola Di Salina, Italië (16415): temperatuur & dauwpunt: 20.05.2018 10:00:00 - 26.05.2018 10:00:00 (CEST)Isola Di Salina, Italië (16415): windsnelheid: 20.05.2018 10:00:00 - 26.05.2018 10:00:00 (CEST)Isola Di Salina, Italië (16415): windrichting: 20.05.2018 10:00:00 - 26.05.2018 10:00:00 (CEST)Isola Di Salina, Italië (16415): luchtdruk: 20.05.2018 10:00:00 - 26.05.2018 10:00:00 (CEST)Isola Di Salina, Italië (16415): neerslag: 20.05.2018 10:00:00 - 26.05.2018 10:00:00 (CEST)
Datum & Tijd tt [°C] td [°C] ff [km/u] ff [kn] dd ppp [hPa] rr [mm]
26.05.2018 10:00:00 - - - - - - -
26.05.2018 09:00:00 20,1 19,2 9 5 ZO 1018,2 -
26.05.2018 08:00:00 19,3 19,1 4 2 ZO 1018,0 -
26.05.2018 07:00:00 17,5 17,1 0 0 N 1017,9 -
26.05.2018 06:00:00 16,5 16,0 0 0 N 1017,3 -
26.05.2018 05:00:00 16,5 16,0 4 2 W 1017,2 -
26.05.2018 04:00:00 16,6 16,1 0 0 N 1017,4 -
26.05.2018 03:00:00 16,8 16,1 0 0 N 1017,4 -
26.05.2018 02:00:00 16,8 16,1 0 0 N 1017,2 0,0
26.05.2018 01:00:00 17,0 16,3 4 2 W 1017,6 -
26.05.2018 00:00:00 17,1 16,2 0 0 N 1017,6 -
25.05.2018 23:00:00 17,4 16,4 2 1 W 1017,5 -
25.05.2018 22:00:00 17,8 16,6 2 1 W 1017,1 -
25.05.2018 21:00:00 18,2 16,6 2 1 OZO 1016,5 -
25.05.2018 20:00:00 19,3 17,6 4 2 NO 1016,2 0,0
25.05.2018 19:00:00 20,2 17,7 4 2 NO 1015,8 -
25.05.2018 18:00:00 21,0 17,7 5 3 N 1015,8 -
25.05.2018 17:00:00 21,5 19,4 8 4 N 1016,0 -
25.05.2018 16:00:00 20,6 18,8 9 5 N 1016,1 -
25.05.2018 15:00:00 20,0 17,9 13 7 N 1016,2 -
25.05.2018 14:00:00 20,5 18,9 9 5 N 1016,4 0,0
25.05.2018 13:00:00 20,1 18,5 11 6 NNW 1016,5 -
25.05.2018 12:00:00 19,6 18,2 11 6 NNW 1016,6 -
25.05.2018 11:00:00 19,1 17,9 8 4 NW 1016,7 -
25.05.2018 10:00:00 18,8 17,6 8 4 NNW 1016,8 -
25.05.2018 09:00:00 19,0 18,0 13 7 NW 1016,5 -
25.05.2018 08:00:00 18,2 17,5 5 3 NW 1016,5 0,0
25.05.2018 07:00:00 17,3 16,4 2 1 NW 1016,6 -
25.05.2018 06:00:00 16,3 15,3 4 2 W 1016,4 -
25.05.2018 05:00:00 16,7 15,7 4 2 W 1016,3 -
25.05.2018 04:00:00 16,7 15,5 5 3 W 1016,4 -
25.05.2018 03:00:00 16,7 15,2 4 2 W 1016,6 -
25.05.2018 02:00:00 17,1 15,6 2 1 W 1017,0 0,0
25.05.2018 01:00:00 17,4 15,7 5 3 W 1017,3 -
25.05.2018 00:00:00 18,0 16,6 2 1 W 1017,7 -
24.05.2018 23:00:00 17,9 16,7 2 1 W 1017,9 -
24.05.2018 22:00:00 17,8 16,9 5 3 WNW 1017,8 -
24.05.2018 21:00:00 17,6 16,6 8 4 WNW 1017,3 -
24.05.2018 20:00:00 18,1 16,9 18 10 WNW 1016,8 0,0
24.05.2018 19:00:00 18,6 17,2 21 11 NW 1016,7 -
24.05.2018 18:00:00 19,1 17,7 21 11 NW 1016,9 -
24.05.2018 17:00:00 19,4 17,8 18 10 NW 1017,3 -
24.05.2018 16:00:00 19,8 18,2 18 10 NW 1017,4 -
24.05.2018 15:00:00 19,5 17,9 18 10 NW 1017,9 -
24.05.2018 14:00:00 19,7 18,1 21 11 NW 1018,0 0,0
24.05.2018 13:00:00 19,1 17,7 24 13 NW 1018,2 -
24.05.2018 12:00:00 19,3 17,7 22 12 NW 1018,1 -
24.05.2018 11:00:00 19,2 17,8 22 12 NW 1018,0 -
24.05.2018 10:00:00 18,9 17,5 22 12 NW 1018,0 -
24.05.2018 09:00:00 18,7 17,5 21 11 NW 1018,2 -
24.05.2018 08:00:00 17,5 16,6 22 12 NW 1017,9 0,0
24.05.2018 07:00:00 17,2 16,5 24 13 NW 1017,8 -
24.05.2018 06:00:00 17,2 16,3 16 9 WNW 1017,6 -
24.05.2018 05:00:00 17,1 16,2 16 9 WNW 1017,4 -
24.05.2018 04:00:00 17,0 16,1 16 9 WNW 1017,5 -
24.05.2018 03:00:00 17,0 15,8 13 7 WNW 1017,5 -
24.05.2018 02:00:00 16,8 15,8 13 7 W 1017,8 0,0
24.05.2018 01:00:00 17,2 16,2 16 9 WNW 1018,0 -
24.05.2018 00:00:00 17,1 16,1 16 9 WNW 1018,1 -
23.05.2018 23:00:00 17,5 16,6 18 10 WNW 1018,3 -
23.05.2018 22:00:00 17,5 16,5 13 7 WNW 1017,8 -
23.05.2018 21:00:00 17,5 16,5 16 9 NW 1017,1 -
23.05.2018 20:00:00 17,9 16,9 21 11 NW 1016,5 0,0
23.05.2018 19:00:00 18,1 17,1 18 10 NW 1016,3 -
23.05.2018 18:00:00 18,3 17,1 22 12 NW 1016,2 -
23.05.2018 17:00:00 18,8 17,4 21 11 NW 1016,4 -
23.05.2018 16:00:00 18,5 17,3 24 13 NW 1016,4 -
23.05.2018 15:00:00 18,7 17,1 24 13 NW 1016,4 -
23.05.2018 14:00:00 18,4 17,2 24 13 WNW 1016,8 0,0
23.05.2018 13:00:00 18,9 17,5 21 11 NW 1016,5 -
23.05.2018 12:00:00 18,7 17,0 18 10 NW 1016,5 -
23.05.2018 11:00:00 18,6 17,2 18 10 NW 1016,2 -
23.05.2018 10:00:00 17,7 16,8 21 11 NW 1015,9 -
23.05.2018 09:00:00 17,3 16,8 16 9 NW 1015,7 -
23.05.2018 08:00:00 17,3 16,6 9 5 WNW 1015,4 -
23.05.2018 07:00:00 16,7 16,2 5 3 W 1014,9 -
23.05.2018 06:00:00 16,2 15,8 9 5 Z 1013,8 -
23.05.2018 05:00:00 16,9 16,4 11 6 NW 1014,6 -
23.05.2018 04:00:00 17,0 16,6 5 3 NW 1014,5 -
23.05.2018 03:00:00 17,5 17,3 22 12 NNW 1014,1 -
23.05.2018 02:00:00 17,7 17,3 16 9 NW 1014,6 0,0
23.05.2018 01:00:00 18,3 17,9 16 9 WNW 1015,7 -
23.05.2018 00:00:00 18,7 18,2 16 9 NW 1014,5 -
22.05.2018 23:00:00 18,8 18,3 16 9 WNW 1014,7 -
22.05.2018 22:00:00 19,1 18,6 18 10 WNW 1015,2 -
22.05.2018 21:00:00 19,3 18,9 15 8 NW 1014,1 -
22.05.2018 20:00:00 19,6 18,9 15 8 NW 1013,5 0,0
22.05.2018 19:00:00 20,1 19,0 18 10 NW 1013,3 -
22.05.2018 18:00:00 20,4 19,5 18 10 NW 1012,9 -
22.05.2018 17:00:00 20,7 19,5 16 9 NW 1012,7 -
22.05.2018 16:00:00 21,9 19,6 15 8 NW 1012,9 -
22.05.2018 15:00:00 23,4 19,1 5 3 O 1012,7 -
22.05.2018 14:00:00 23,8 18,8 8 4 ZO 1013,3 0,0
22.05.2018 13:00:00 23,5 21,5 5 3 ZO 1013,7 -
22.05.2018 12:00:00 23,3 21,7 11 6 ZZO 1014,0 -
22.05.2018 11:00:00 21,9 20,8 13 7 ZZO 1014,1 -
22.05.2018 10:00:00 20,2 19,7 15 8 ZZO 1014,0 -
22.05.2018 09:00:00 19,8 19,6 11 6 ZZO 1014,0 -
22.05.2018 08:00:00 18,7 18,5 8 4 ZZO 1013,7 0,0
22.05.2018 07:00:00 18,1 17,7 0 0 N 1013,5 -
22.05.2018 06:00:00 17,8 17,4 13 7 Z 1012,9 -
22.05.2018 05:00:00 17,7 17,2 4 2 WNW 1013,1 -
22.05.2018 04:00:00 17,8 17,3 4 2 ZZW 1013,3 -
22.05.2018 03:00:00 18,2 17,5 4 2 ONO 1013,2 -
22.05.2018 02:00:00 18,1 16,5 2 1 Z 1013,2 0,0
22.05.2018 01:00:00 18,1 14,9 2 1 WZW 1013,0 -
22.05.2018 00:00:00 18,3 15,5 5 3 W 1013,1 -
21.05.2018 23:00:00 18,4 14,8 0 0 N 1013,0 -
21.05.2018 22:00:00 18,9 15,7 2 1 ZW 1012,9 -
21.05.2018 21:00:00 18,6 16,9 4 2 Z 1012,4 -
21.05.2018 20:00:00 19,9 18,7 0 0 N 1012,4 0,0
21.05.2018 19:00:00 20,0 18,9 8 4 N 1011,8 -
21.05.2018 18:00:00 20,2 19,0 13 7 NNW 1011,6 -
21.05.2018 17:00:00 20,4 17,9 16 9 NNW 1011,4 -
21.05.2018 16:00:00 21,3 17,8 11 6 NNW 1011,5 -
21.05.2018 15:00:00 21,4 18,3 13 7 NW 1012,0 -
21.05.2018 14:00:00 21,5 19,7 9 5 N 1012,1 0,0
21.05.2018 13:00:00 21,1 20,0 5 3 N 1012,8 -
21.05.2018 12:00:00 20,4 19,3 9 5 N 1012,9 -
21.05.2018 11:00:00 20,3 19,2 5 3 NNW 1012,2 -
21.05.2018 10:00:00 19,7 19,2 2 1 NNW 1012,3 -
21.05.2018 09:00:00 19,4 18,9 5 3 ZZO 1012,1 -
21.05.2018 08:00:00 18,5 18,0 0 0 N 1012,1 0,0
21.05.2018 07:00:00 18,2 17,2 0 0 N 1012,0 -
21.05.2018 06:00:00 17,9 16,9 2 1 W 1011,7 -
21.05.2018 05:00:00 18,1 16,4 5 3 WNW 1011,5 -
21.05.2018 04:00:00 18,3 16,0 2 1 W 1011,4 -
21.05.2018 03:00:00 18,5 14,5 4 2 W 1011,3 -
21.05.2018 02:00:00 18,7 15,3 2 1 Z 1011,4 0,0
21.05.2018 01:00:00 18,7 17,0 8 4 Z 1011,7 -
21.05.2018 00:00:00 19,0 17,3 11 6 ZZO 1011,7 -
20.05.2018 23:00:00 18,7 17,5 13 7 ZO 1011,7 -
20.05.2018 22:00:00 19,0 17,4 0 0 N 1011,6 -
20.05.2018 21:00:00 19,3 17,4 2 1 ZZO 1011,4 -
20.05.2018 20:00:00 19,7 17,6 5 3 ZO 1011,0 0,0
20.05.2018 19:00:00 20,3 16,9 5 3 ONO 1010,8 -
20.05.2018 18:00:00 21,3 17,2 4 2 NNO 1011,0 -
20.05.2018 17:00:00 21,9 15,9 2 1 O 1011,1 -
20.05.2018 16:00:00 21,5 15,9 2 1 NNO 1011,7 -
20.05.2018 15:00:00 21,8 15,8 4 2 N 1011,8 -
20.05.2018 14:00:00 21,6 16,0 4 2 ONO 1012,1 0,0
20.05.2018 13:00:00 20,3 16,9 4 2 NNO 1011,9 -
20.05.2018 12:00:00 22,1 18,6 11 6 ZZO 1012,3 -
20.05.2018 11:00:00 20,9 18,0 11 6 ZZO 1012,4 -
20.05.2018 10:00:00 19,9 18,3 22 12 Z 1012,6 -

tt = temperatuur
td = dauwpunt
ff = windsnelheid
dd = windrichting
ppp = luchtdruk
rr = neerslag

Weerstations in de omgeving